sensor_id;sensor_type;location;lat;lon;timestamp;P1;durP1;ratioP1;P2;durP2;ratioP2
39404;SDS011;25121;51.090;17.038;2022-11-04T00:02:41;26.15;;;15.15;;
39404;SDS011;25121;51.090;17.038;2022-11-04T00:05:28;26.40;;;14.68;;
39404;SDS011;25121;51.090;17.038;2022-11-04T00:08:16;24.73;;;14.63;;
39404;SDS011;25121;51.090;17.038;2022-11-04T00:11:13;27.02;;;16.13;;
39404;SDS011;25121;51.090;17.038;2022-11-04T00:14:19;32.58;;;17.70;;
39404;SDS011;25121;51.090;17.038;2022-11-04T00:17:08;29.75;;;15.82;;
39404;SDS011;25121;51.090;17.038;2022-11-04T00:20:10;26.23;;;16.10;;
39404;SDS011;25121;51.090;17.038;2022-11-04T00:23:20;29.65;;;16.30;;
39404;SDS011;25121;51.090;17.038;2022-11-04T00:26:25;31.75;;;16.90;;
39404;SDS011;25121;51.090;17.038;2022-11-04T00:32:19;28.00;;;15.82;;
39404;SDS011;25121;51.090;17.038;2022-11-04T00:35:24;28.42;;;16.75;;
39404;SDS011;25121;51.090;17.038;2022-11-04T00:38:11;28.77;;;16.85;;
39404;SDS011;25121;51.090;17.038;2022-11-04T00:40:59;24.92;;;14.93;;
39404;SDS011;25121;51.090;17.038;2022-11-04T00:43:47;24.55;;;15.85;;
39404;SDS011;25121;51.090;17.038;2022-11-04T00:46:36;27.38;;;15.68;;
39404;SDS011;25121;51.090;17.038;2022-11-04T00:49:23;27.17;;;15.20;;
39404;SDS011;25121;51.090;17.038;2022-11-04T00:52:11;27.42;;;15.57;;
39404;SDS011;25121;51.090;17.038;2022-11-04T00:54:58;24.88;;;15.30;;
39404;SDS011;25121;51.090;17.038;2022-11-04T00:57:46;29.30;;;16.98;;
39404;SDS011;25121;51.090;17.038;2022-11-04T01:00:34;28.48;;;16.38;;
39404;SDS011;25121;51.090;17.038;2022-11-04T01:03:24;32.75;;;15.25;;
39404;SDS011;25121;51.090;17.038;2022-11-04T01:06:15;23.00;;;15.18;;
39404;SDS011;25121;51.090;17.038;2022-11-04T01:09:04;24.42;;;15.35;;
39404;SDS011;25121;51.090;17.038;2022-11-04T01:11:53;24.92;;;15.35;;
39404;SDS011;25121;51.090;17.038;2022-11-04T01:14:41;28.67;;;15.18;;
39404;SDS011;25121;51.090;17.038;2022-11-04T01:17:29;26.40;;;16.73;;
39404;SDS011;25121;51.090;17.038;2022-11-04T01:20:18;26.75;;;14.73;;
39404;SDS011;25121;51.090;17.038;2022-11-04T01:23:06;23.90;;;14.68;;
39404;SDS011;25121;51.090;17.038;2022-11-04T01:25:53;23.63;;;14.57;;
39404;SDS011;25121;51.090;17.038;2022-11-04T01:28:41;28.55;;;15.82;;
39404;SDS011;25121;51.090;17.038;2022-11-04T01:31:29;25.75;;;14.68;;
39404;SDS011;25121;51.090;17.038;2022-11-04T01:34:17;26.58;;;16.25;;
39404;SDS011;25121;51.090;17.038;2022-11-04T01:37:07;24.38;;;15.10;;
39404;SDS011;25121;51.090;17.038;2022-11-04T01:39:54;25.77;;;14.50;;
39404;SDS011;25121;51.090;17.038;2022-11-04T01:42:42;28.10;;;15.10;;
39404;SDS011;25121;51.090;17.038;2022-11-04T01:45:30;24.83;;;13.80;;
39404;SDS011;25121;51.090;17.038;2022-11-04T01:48:18;23.92;;;14.55;;
39404;SDS011;25121;51.090;17.038;2022-11-04T01:51:10;26.17;;;14.90;;
39404;SDS011;25121;51.090;17.038;2022-11-04T01:54:01;24.05;;;14.43;;
39404;SDS011;25121;51.090;17.038;2022-11-04T01:56:52;26.00;;;13.48;;
39404;SDS011;25121;51.090;17.038;2022-11-04T01:59:41;24.05;;;13.65;;
39404;SDS011;25121;51.090;17.038;2022-11-04T02:02:29;19.35;;;13.13;;
39404;SDS011;25121;51.090;17.038;2022-11-04T02:05:17;22.75;;;12.57;;
39404;SDS011;25121;51.090;17.038;2022-11-04T02:08:05;21.80;;;13.98;;
39404;SDS011;25121;51.090;17.038;2022-11-04T02:10:56;24.75;;;14.25;;
39404;SDS011;25121;51.090;17.038;2022-11-04T02:13:46;20.25;;;13.55;;
39404;SDS011;25121;51.090;17.038;2022-11-04T02:16:35;28.70;;;13.90;;
39404;SDS011;25121;51.090;17.038;2022-11-04T02:19:35;22.83;;;13.70;;
39404;SDS011;25121;51.090;17.038;2022-11-04T02:22:50;23.40;;;14.15;;
39404;SDS011;25121;51.090;17.038;2022-11-04T02:29:46;22.95;;;14.60;;
39404;SDS011;25121;51.090;17.038;2022-11-04T02:36:08;20.55;;;13.20;;
39404;SDS011;25121;51.090;17.038;2022-11-04T02:39:06;21.77;;;14.30;;
39404;SDS011;25121;51.090;17.038;2022-11-04T02:42:08;24.88;;;13.75;;
39404;SDS011;25121;51.090;17.038;2022-11-04T02:45:09;19.90;;;12.95;;
39404;SDS011;25121;51.090;17.038;2022-11-04T02:48:02;21.27;;;13.80;;
39404;SDS011;25121;51.090;17.038;2022-11-04T02:50:58;22.80;;;13.63;;
39404;SDS011;25121;51.090;17.038;2022-11-04T02:53:54;20.10;;;12.57;;
39404;SDS011;25121;51.090;17.038;2022-11-04T02:56:51;19.90;;;13.32;;
39404;SDS011;25121;51.090;17.038;2022-11-04T02:59:45;20.52;;;12.50;;
39404;SDS011;25121;51.090;17.038;2022-11-04T03:02:40;19.73;;;12.98;;
39404;SDS011;25121;51.090;17.038;2022-11-04T03:05:31;21.33;;;12.25;;
39404;SDS011;25121;51.090;17.038;2022-11-04T03:08:22;20.15;;;12.07;;
39404;SDS011;25121;51.090;17.038;2022-11-04T03:11:15;23.10;;;13.57;;
39404;SDS011;25121;51.090;17.038;2022-11-04T03:14:06;20.63;;;12.95;;
39404;SDS011;25121;51.090;17.038;2022-11-04T03:17:02;21.45;;;13.20;;
39404;SDS011;25121;51.090;17.038;2022-11-04T03:19:56;24.10;;;13.23;;
39404;SDS011;25121;51.090;17.038;2022-11-04T03:22:46;18.90;;;12.93;;
39404;SDS011;25121;51.090;17.038;2022-11-04T03:25:35;17.42;;;11.35;;
39404;SDS011;25121;51.090;17.038;2022-11-04T03:28:30;20.65;;;12.70;;
39404;SDS011;25121;51.090;17.038;2022-11-04T03:31:26;20.33;;;12.57;;
39404;SDS011;25121;51.090;17.038;2022-11-04T03:34:25;18.67;;;11.45;;
39404;SDS011;25121;51.090;17.038;2022-11-04T03:37:14;18.40;;;12.48;;
39404;SDS011;25121;51.090;17.038;2022-11-04T03:40:02;23.92;;;13.57;;
39404;SDS011;25121;51.090;17.038;2022-11-04T03:42:52;17.90;;;12.38;;
39404;SDS011;25121;51.090;17.038;2022-11-04T03:45:45;18.20;;;12.80;;
39404;SDS011;25121;51.090;17.038;2022-11-04T03:48:34;22.27;;;13.40;;
39404;SDS011;25121;51.090;17.038;2022-11-04T03:51:22;19.63;;;12.68;;
39404;SDS011;25121;51.090;17.038;2022-11-04T03:54:11;20.33;;;13.75;;
39404;SDS011;25121;51.090;17.038;2022-11-04T03:57:04;20.92;;;13.90;;
39404;SDS011;25121;51.090;17.038;2022-11-04T04:00:09;22.80;;;14.20;;
39404;SDS011;25121;51.090;17.038;2022-11-04T04:02:59;23.38;;;13.52;;
39404;SDS011;25121;51.090;17.038;2022-11-04T04:05:53;25.70;;;14.32;;
39404;SDS011;25121;51.090;17.038;2022-11-04T04:08:47;20.75;;;13.25;;
39404;SDS011;25121;51.090;17.038;2022-11-04T04:11:41;27.85;;;16.05;;
39404;SDS011;25121;51.090;17.038;2022-11-04T04:14:39;25.98;;;14.85;;
39404;SDS011;25121;51.090;17.038;2022-11-04T04:17:31;23.80;;;14.30;;
39404;SDS011;25121;51.090;17.038;2022-11-04T04:20:28;24.58;;;14.30;;
39404;SDS011;25121;51.090;17.038;2022-11-04T04:23:20;24.88;;;14.00;;
39404;SDS011;25121;51.090;17.038;2022-11-04T04:26:31;24.10;;;15.32;;
39404;SDS011;25121;51.090;17.038;2022-11-04T04:29:54;21.42;;;13.05;;
39404;SDS011;25121;51.090;17.038;2022-11-04T04:32:43;22.98;;;13.32;;
39404;SDS011;25121;51.090;17.038;2022-11-04T04:35:34;21.63;;;14.30;;
39404;SDS011;25121;51.090;17.038;2022-11-04T04:38:29;23.88;;;14.30;;
39404;SDS011;25121;51.090;17.038;2022-11-04T04:41:41;23.48;;;14.63;;
39404;SDS011;25121;51.090;17.038;2022-11-04T04:44:46;26.38;;;15.63;;
39404;SDS011;25121;51.090;17.038;2022-11-04T04:47:48;27.50;;;16.02;;
39404;SDS011;25121;51.090;17.038;2022-11-04T04:50:37;26.27;;;16.17;;
39404;SDS011;25121;51.090;17.038;2022-11-04T04:53:29;24.13;;;16.05;;
39404;SDS011;25121;51.090;17.038;2022-11-04T04:56:16;27.33;;;15.25;;
39404;SDS011;25121;51.090;17.038;2022-11-04T04:59:07;27.33;;;15.77;;
39404;SDS011;25121;51.090;17.038;2022-11-04T05:01:55;27.70;;;16.90;;
39404;SDS011;25121;51.090;17.038;2022-11-04T05:04:44;31.38;;;16.80;;
39404;SDS011;25121;51.090;17.038;2022-11-04T05:07:31;33.60;;;18.30;;
39404;SDS011;25121;51.090;17.038;2022-11-04T05:10:21;29.08;;;18.83;;
39404;SDS011;25121;51.090;17.038;2022-11-04T05:13:08;30.80;;;18.77;;
39404;SDS011;25121;51.090;17.038;2022-11-04T05:16:14;32.28;;;18.92;;
39404;SDS011;25121;51.090;17.038;2022-11-04T05:19:02;30.73;;;18.20;;
39404;SDS011;25121;51.090;17.038;2022-11-04T05:21:52;32.13;;;18.70;;
39404;SDS011;25121;51.090;17.038;2022-11-04T05:24:39;32.35;;;17.73;;
39404;SDS011;25121;51.090;17.038;2022-11-04T05:27:27;32.97;;;18.40;;
39404;SDS011;25121;51.090;17.038;2022-11-04T05:30:15;34.85;;;18.50;;
39404;SDS011;25121;51.090;17.038;2022-11-04T05:33:03;31.13;;;18.40;;
39404;SDS011;25121;51.090;17.038;2022-11-04T05:35:52;35.63;;;17.95;;
39404;SDS011;25121;51.090;17.038;2022-11-04T05:38:41;37.78;;;20.10;;
39404;SDS011;25121;51.090;17.038;2022-11-04T05:41:29;33.80;;;19.88;;
39404;SDS011;25121;51.090;17.038;2022-11-04T05:44:17;34.88;;;19.88;;
39404;SDS011;25121;51.090;17.038;2022-11-04T05:47:04;31.00;;;18.98;;
39404;SDS011;25121;51.090;17.038;2022-11-04T05:49:52;36.20;;;19.60;;
39404;SDS011;25121;51.090;17.038;2022-11-04T05:52:39;30.13;;;19.77;;
39404;SDS011;25121;51.090;17.038;2022-11-04T05:55:31;37.00;;;19.77;;
39404;SDS011;25121;51.090;17.038;2022-11-04T05:58:18;35.40;;;20.40;;
39404;SDS011;25121;51.090;17.038;2022-11-04T06:01:10;37.53;;;20.77;;
39404;SDS011;25121;51.090;17.038;2022-11-04T06:04:13;35.53;;;20.20;;
39404;SDS011;25121;51.090;17.038;2022-11-04T06:07:03;39.05;;;22.48;;
39404;SDS011;25121;51.090;17.038;2022-11-04T06:09:50;33.25;;;20.65;;
39404;SDS011;25121;51.090;17.038;2022-11-04T06:12:39;38.10;;;21.83;;
39404;SDS011;25121;51.090;17.038;2022-11-04T06:15:27;39.63;;;21.17;;
39404;SDS011;25121;51.090;17.038;2022-11-04T06:18:15;37.42;;;21.75;;
39404;SDS011;25121;51.090;17.038;2022-11-04T06:21:07;38.50;;;22.05;;
39404;SDS011;25121;51.090;17.038;2022-11-04T06:24:06;39.03;;;23.17;;
39404;SDS011;25121;51.090;17.038;2022-11-04T06:26:55;36.95;;;22.77;;
39404;SDS011;25121;51.090;17.038;2022-11-04T06:29:44;42.55;;;23.77;;
39404;SDS011;25121;51.090;17.038;2022-11-04T06:32:33;39.70;;;22.75;;
39404;SDS011;25121;51.090;17.038;2022-11-04T06:35:20;42.92;;;25.67;;
39404;SDS011;25121;51.090;17.038;2022-11-04T06:38:08;39.63;;;23.30;;
39404;SDS011;25121;51.090;17.038;2022-11-04T06:40:56;50.33;;;26.00;;
39404;SDS011;25121;51.090;17.038;2022-11-04T06:43:44;40.67;;;23.85;;
39404;SDS011;25121;51.090;17.038;2022-11-04T06:46:34;39.33;;;24.15;;
39404;SDS011;25121;51.090;17.038;2022-11-04T06:49:25;46.70;;;25.58;;
39404;SDS011;25121;51.090;17.038;2022-11-04T06:52:12;35.45;;;23.08;;
39404;SDS011;25121;51.090;17.038;2022-11-04T06:55:00;41.22;;;20.85;;
39404;SDS011;25121;51.090;17.038;2022-11-04T06:57:52;39.42;;;22.83;;
39404;SDS011;25121;51.090;17.038;2022-11-04T07:00:39;40.47;;;22.90;;
39404;SDS011;25121;51.090;17.038;2022-11-04T07:03:28;42.75;;;23.65;;
39404;SDS011;25121;51.090;17.038;2022-11-04T07:06:17;39.47;;;23.58;;
39404;SDS011;25121;51.090;17.038;2022-11-04T07:09:06;40.42;;;24.75;;
39404;SDS011;25121;51.090;17.038;2022-11-04T07:11:56;35.47;;;21.52;;
39404;SDS011;25121;51.090;17.038;2022-11-04T07:14:44;36.30;;;20.73;;
39404;SDS011;25121;51.090;17.038;2022-11-04T07:17:32;34.08;;;21.67;;
39404;SDS011;25121;51.090;17.038;2022-11-04T07:20:24;35.83;;;23.15;;
39404;SDS011;25121;51.090;17.038;2022-11-04T07:23:13;37.75;;;22.85;;
39404;SDS011;25121;51.090;17.038;2022-11-04T07:26:11;29.58;;;18.98;;
39404;SDS011;25121;51.090;17.038;2022-11-04T07:28:59;33.65;;;20.85;;
39404;SDS011;25121;51.090;17.038;2022-11-04T07:31:47;35.67;;;21.60;;
39404;SDS011;25121;51.090;17.038;2022-11-04T07:34:34;32.22;;;21.60;;
39404;SDS011;25121;51.090;17.038;2022-11-04T07:37:23;32.58;;;21.83;;
39404;SDS011;25121;51.090;17.038;2022-11-04T07:40:13;31.77;;;20.73;;
39404;SDS011;25121;51.090;17.038;2022-11-04T07:43:01;33.45;;;22.48;;
39404;SDS011;25121;51.090;17.038;2022-11-04T07:46:00;36.80;;;22.67;;
39404;SDS011;25121;51.090;17.038;2022-11-04T07:48:55;37.95;;;22.42;;
39404;SDS011;25121;51.090;17.038;2022-11-04T07:51:43;31.85;;;21.08;;
39404;SDS011;25121;51.090;17.038;2022-11-04T07:54:34;30.83;;;20.95;;
39404;SDS011;25121;51.090;17.038;2022-11-04T07:57:23;30.40;;;19.27;;
39404;SDS011;25121;51.090;17.038;2022-11-04T08:00:11;31.70;;;21.42;;
39404;SDS011;25121;51.090;17.038;2022-11-04T08:03:00;31.00;;;20.40;;
39404;SDS011;25121;51.090;17.038;2022-11-04T08:05:53;30.02;;;20.30;;
39404;SDS011;25121;51.090;17.038;2022-11-04T08:08:42;29.80;;;19.83;;
39404;SDS011;25121;51.090;17.038;2022-11-04T08:11:31;35.67;;;19.02;;
39404;SDS011;25121;51.090;17.038;2022-11-04T08:14:19;28.10;;;18.33;;
39404;SDS011;25121;51.090;17.038;2022-11-04T08:17:07;24.75;;;16.75;;
39404;SDS011;25121;51.090;17.038;2022-11-04T08:19:55;28.45;;;18.30;;
39404;SDS011;25121;51.090;17.038;2022-11-04T08:22:42;26.60;;;16.33;;
39404;SDS011;25121;51.090;17.038;2022-11-04T08:25:30;25.98;;;17.00;;
39404;SDS011;25121;51.090;17.038;2022-11-04T08:28:19;24.13;;;15.68;;
39404;SDS011;25121;51.090;17.038;2022-11-04T08:31:10;27.88;;;17.35;;
39404;SDS011;25121;51.090;17.038;2022-11-04T08:34:00;24.55;;;16.23;;
39404;SDS011;25121;51.090;17.038;2022-11-04T08:36:53;28.85;;;18.60;;
39404;SDS011;25121;51.090;17.038;2022-11-04T08:39:41;25.63;;;17.52;;
39404;SDS011;25121;51.090;17.038;2022-11-04T08:42:29;26.45;;;17.17;;
39404;SDS011;25121;51.090;17.038;2022-11-04T08:45:19;30.75;;;19.05;;
39404;SDS011;25121;51.090;17.038;2022-11-04T08:48:07;26.33;;;17.90;;
39404;SDS011;25121;51.090;17.038;2022-11-04T08:50:58;25.60;;;17.20;;
39404;SDS011;25121;51.090;17.038;2022-11-04T08:53:49;28.05;;;16.50;;
39404;SDS011;25121;51.090;17.038;2022-11-04T08:56:38;25.42;;;16.90;;
39404;SDS011;25121;51.090;17.038;2022-11-04T08:59:26;22.73;;;16.67;;
39404;SDS011;25121;51.090;17.038;2022-11-04T09:02:19;25.30;;;17.85;;
39404;SDS011;25121;51.090;17.038;2022-11-04T09:05:07;21.38;;;14.80;;
39404;SDS011;25121;51.090;17.038;2022-11-04T09:07:58;22.75;;;14.80;;
39404;SDS011;25121;51.090;17.038;2022-11-04T09:10:46;23.80;;;15.68;;
39404;SDS011;25121;51.090;17.038;2022-11-04T09:13:37;22.00;;;14.98;;
39404;SDS011;25121;51.090;17.038;2022-11-04T09:16:25;23.13;;;13.90;;
39404;SDS011;25121;51.090;17.038;2022-11-04T09:19:15;21.85;;;13.75;;
39404;SDS011;25121;51.090;17.038;2022-11-04T09:22:03;20.75;;;14.95;;
39404;SDS011;25121;51.090;17.038;2022-11-04T09:24:51;25.35;;;16.55;;
39404;SDS011;25121;51.090;17.038;2022-11-04T09:27:40;23.60;;;15.15;;
39404;SDS011;25121;51.090;17.038;2022-11-04T09:30:27;20.50;;;14.30;;
39404;SDS011;25121;51.090;17.038;2022-11-04T09:33:15;22.50;;;14.07;;
39404;SDS011;25121;51.090;17.038;2022-11-04T09:36:05;21.55;;;15.15;;
39404;SDS011;25121;51.090;17.038;2022-11-04T09:38:57;19.50;;;14.30;;
39404;SDS011;25121;51.090;17.038;2022-11-04T09:41:56;19.83;;;14.05;;
39404;SDS011;25121;51.090;17.038;2022-11-04T09:45:03;21.92;;;13.85;;
39404;SDS011;25121;51.090;17.038;2022-11-04T09:48:07;23.27;;;13.60;;
39404;SDS011;25121;51.090;17.038;2022-11-04T09:51:12;18.73;;;12.02;;
39404;SDS011;25121;51.090;17.038;2022-11-04T09:54:23;20.13;;;13.50;;
39404;SDS011;25121;51.090;17.038;2022-11-04T09:57:16;17.80;;;12.05;;
39404;SDS011;25121;51.090;17.038;2022-11-04T10:00:09;18.63;;;11.48;;
39404;SDS011;25121;51.090;17.038;2022-11-04T10:03:04;17.88;;;12.48;;
39404;SDS011;25121;51.090;17.038;2022-11-04T10:06:14;16.85;;;11.50;;
39404;SDS011;25121;51.090;17.038;2022-11-04T10:09:26;17.25;;;12.15;;
39404;SDS011;25121;51.090;17.038;2022-11-04T10:19:26;15.23;;;10.55;;
39404;SDS011;25121;51.090;17.038;2022-11-04T10:22:30;17.48;;;11.02;;
39404;SDS011;25121;51.090;17.038;2022-11-04T10:25:22;19.67;;;11.77;;
39404;SDS011;25121;51.090;17.038;2022-11-04T10:28:17;19.98;;;12.68;;
39404;SDS011;25121;51.090;17.038;2022-11-04T10:31:09;19.83;;;10.77;;
39404;SDS011;25121;51.090;17.038;2022-11-04T10:34:02;17.05;;;11.63;;
39404;SDS011;25121;51.090;17.038;2022-11-04T10:36:54;19.77;;;13.18;;
39404;SDS011;25121;51.090;17.038;2022-11-04T10:39:45;19.85;;;12.95;;
39404;SDS011;25121;51.090;17.038;2022-11-04T10:42:33;21.63;;;13.23;;
39404;SDS011;25121;51.090;17.038;2022-11-04T10:45:23;19.63;;;12.85;;
39404;SDS011;25121;51.090;17.038;2022-11-04T10:48:20;20.70;;;13.88;;
39404;SDS011;25121;51.090;17.038;2022-11-04T10:51:16;18.85;;;12.65;;
39404;SDS011;25121;51.090;17.038;2022-11-04T10:54:06;17.95;;;12.20;;
39404;SDS011;25121;51.090;17.038;2022-11-04T10:56:57;23.63;;;15.02;;
39404;SDS011;25121;51.090;17.038;2022-11-04T10:59:47;23.40;;;13.68;;
39404;SDS011;25121;51.090;17.038;2022-11-04T11:02:44;24.65;;;15.77;;
39404;SDS011;25121;51.090;17.038;2022-11-04T11:05:36;22.73;;;14.23;;
39404;SDS011;25121;51.090;17.038;2022-11-04T11:08:26;18.42;;;12.68;;
39404;SDS011;25121;51.090;17.038;2022-11-04T11:11:38;20.67;;;13.93;;
39404;SDS011;25121;51.090;17.038;2022-11-04T11:14:32;21.83;;;13.30;;
39404;SDS011;25121;51.090;17.038;2022-11-04T11:17:23;21.23;;;12.13;;
39404;SDS011;25121;51.090;17.038;2022-11-04T11:20:21;19.10;;;11.68;;
39404;SDS011;25121;51.090;17.038;2022-11-04T11:23:32;15.65;;;10.43;;
39404;SDS011;25121;51.090;17.038;2022-11-04T11:26:28;18.10;;;11.23;;
39404;SDS011;25121;51.090;17.038;2022-11-04T11:29:21;15.35;;;10.25;;
39404;SDS011;25121;51.090;17.038;2022-11-04T11:32:18;15.55;;;10.18;;
39404;SDS011;25121;51.090;17.038;2022-11-04T11:35:17;17.48;;;10.68;;
39404;SDS011;25121;51.090;17.038;2022-11-04T11:38:17;16.80;;;10.27;;
39404;SDS011;25121;51.090;17.038;2022-11-04T11:41:08;15.93;;;10.10;;
39404;SDS011;25121;51.090;17.038;2022-11-04T11:44:17;17.92;;;11.02;;
39404;SDS011;25121;51.090;17.038;2022-11-04T11:47:16;13.77;;;8.90;;
39404;SDS011;25121;51.090;17.038;2022-11-04T11:50:13;18.02;;;11.80;;
39404;SDS011;25121;51.090;17.038;2022-11-04T11:53:12;19.67;;;11.82;;
39404;SDS011;25121;51.090;17.038;2022-11-04T11:56:03;17.92;;;12.23;;
39404;SDS011;25121;51.090;17.038;2022-11-04T11:59:03;22.35;;;11.95;;
39404;SDS011;25121;51.090;17.038;2022-11-04T12:02:30;18.13;;;11.52;;
39404;SDS011;25121;51.090;17.038;2022-11-04T12:05:29;18.92;;;11.25;;
39404;SDS011;25121;51.090;17.038;2022-11-04T12:08:46;15.07;;;9.65;;
39404;SDS011;25121;51.090;17.038;2022-11-04T12:12:05;16.17;;;10.82;;
39404;SDS011;25121;51.090;17.038;2022-11-04T12:15:17;16.80;;;11.38;;
39404;SDS011;25121;51.090;17.038;2022-11-04T12:18:33;19.35;;;11.95;;
39404;SDS011;25121;51.090;17.038;2022-11-04T12:21:35;16.58;;;10.93;;
39404;SDS011;25121;51.090;17.038;2022-11-04T12:24:29;18.80;;;12.85;;
39404;SDS011;25121;51.090;17.038;2022-11-04T12:27:29;21.05;;;14.25;;
39404;SDS011;25121;51.090;17.038;2022-11-04T12:30:23;26.70;;;15.00;;
39404;SDS011;25121;51.090;17.038;2022-11-04T12:33:24;23.15;;;15.23;;
39404;SDS011;25121;51.090;17.038;2022-11-04T12:36:25;18.88;;;12.15;;
39404;SDS011;25121;51.090;17.038;2022-11-04T12:39:35;15.93;;;10.60;;
39404;SDS011;25121;51.090;17.038;2022-11-04T12:42:36;16.30;;;10.32;;
39404;SDS011;25121;51.090;17.038;2022-11-04T12:45:41;19.52;;;12.25;;
39404;SDS011;25121;51.090;17.038;2022-11-04T12:48:55;17.13;;;11.05;;
39404;SDS011;25121;51.090;17.038;2022-11-04T12:52:25;21.02;;;13.57;;
39404;SDS011;25121;51.090;17.038;2022-11-04T12:55:34;27.30;;;15.23;;
39404;SDS011;25121;51.090;17.038;2022-11-04T12:58:38;18.55;;;12.75;;
39404;SDS011;25121;51.090;17.038;2022-11-04T13:01:55;21.77;;;13.57;;
39404;SDS011;25121;51.090;17.038;2022-11-04T13:04:51;23.60;;;14.18;;
39404;SDS011;25121;51.090;17.038;2022-11-04T13:07:48;20.20;;;13.85;;
39404;SDS011;25121;51.090;17.038;2022-11-04T13:10:44;23.50;;;14.32;;
39404;SDS011;25121;51.090;17.038;2022-11-04T13:13:38;26.15;;;14.60;;
39404;SDS011;25121;51.090;17.038;2022-11-04T13:16:26;22.23;;;14.85;;
39404;SDS011;25121;51.090;17.038;2022-11-04T13:19:19;22.65;;;13.65;;
39404;SDS011;25121;51.090;17.038;2022-11-04T13:22:16;21.63;;;14.05;;
39404;SDS011;25121;51.090;17.038;2022-11-04T13:25:11;22.42;;;13.13;;
39404;SDS011;25121;51.090;17.038;2022-11-04T13:28:05;22.77;;;14.93;;
39404;SDS011;25121;51.090;17.038;2022-11-04T13:30:59;19.65;;;13.32;;
39404;SDS011;25121;51.090;17.038;2022-11-04T13:33:54;18.95;;;12.30;;
39404;SDS011;25121;51.090;17.038;2022-11-04T13:36:47;20.88;;;13.30;;
39404;SDS011;25121;51.090;17.038;2022-11-04T13:39:45;19.63;;;12.70;;
39404;SDS011;25121;51.090;17.038;2022-11-04T13:42:45;28.05;;;14.88;;
39404;SDS011;25121;51.090;17.038;2022-11-04T13:46:18;21.13;;;13.93;;
39404;SDS011;25121;51.090;17.038;2022-11-04T13:49:16;21.80;;;13.70;;
39404;SDS011;25121;51.090;17.038;2022-11-04T13:52:14;19.92;;;14.10;;
39404;SDS011;25121;51.090;17.038;2022-11-04T13:55:05;22.33;;;13.45;;
39404;SDS011;25121;51.090;17.038;2022-11-04T13:58:05;18.33;;;12.07;;
39404;SDS011;25121;51.090;17.038;2022-11-04T14:01:09;21.20;;;14.43;;
39404;SDS011;25121;51.090;17.038;2022-11-04T14:04:26;21.63;;;13.90;;
39404;SDS011;25121;51.090;17.038;2022-11-04T14:07:16;25.90;;;15.13;;
39404;SDS011;25121;51.090;17.038;2022-11-04T14:10:29;22.48;;;14.02;;
39404;SDS011;25121;51.090;17.038;2022-11-04T14:17:06;23.48;;;13.60;;
39404;SDS011;25121;51.090;17.038;2022-11-04T14:21:00;22.38;;;13.70;;
39404;SDS011;25121;51.090;17.038;2022-11-04T14:23:53;26.50;;;14.75;;
39404;SDS011;25121;51.090;17.038;2022-11-04T14:26:46;24.55;;;15.20;;
39404;SDS011;25121;51.090;17.038;2022-11-04T14:29:36;26.00;;;16.27;;
39404;SDS011;25121;51.090;17.038;2022-11-04T14:32:26;26.60;;;15.63;;
39404;SDS011;25121;51.090;17.038;2022-11-04T14:35:21;21.77;;;14.45;;
39404;SDS011;25121;51.090;17.038;2022-11-04T14:38:19;24.30;;;15.63;;
39404;SDS011;25121;51.090;17.038;2022-11-04T14:41:19;28.80;;;15.73;;
39404;SDS011;25121;51.090;17.038;2022-11-04T14:44:19;30.27;;;18.17;;
39404;SDS011;25121;51.090;17.038;2022-11-04T14:47:16;30.25;;;18.13;;
39404;SDS011;25121;51.090;17.038;2022-11-04T14:50:13;26.80;;;16.65;;
39404;SDS011;25121;51.090;17.038;2022-11-04T14:53:08;26.70;;;17.52;;
39404;SDS011;25121;51.090;17.038;2022-11-04T14:56:06;26.90;;;16.92;;
39404;SDS011;25121;51.090;17.038;2022-11-04T14:59:16;23.63;;;16.08;;
39404;SDS011;25121;51.090;17.038;2022-11-04T15:02:15;27.70;;;16.70;;
39404;SDS011;25121;51.090;17.038;2022-11-04T15:05:21;25.75;;;16.70;;
39404;SDS011;25121;51.090;17.038;2022-11-04T15:08:23;27.20;;;16.63;;
39404;SDS011;25121;51.090;17.038;2022-11-04T15:11:17;27.48;;;16.27;;
39404;SDS011;25121;51.090;17.038;2022-11-04T15:14:38;26.45;;;17.55;;
39404;SDS011;25121;51.090;17.038;2022-11-04T15:17:28;27.85;;;16.63;;
39404;SDS011;25121;51.090;17.038;2022-11-04T15:20:20;25.85;;;16.38;;
39404;SDS011;25121;51.090;17.038;2022-11-04T15:23:14;23.63;;;16.05;;
39404;SDS011;25121;51.090;17.038;2022-11-04T15:26:14;28.55;;;16.33;;
39404;SDS011;25121;51.090;17.038;2022-11-04T15:29:13;24.00;;;16.30;;
39404;SDS011;25121;51.090;17.038;2022-11-04T15:32:04;23.58;;;15.75;;
39404;SDS011;25121;51.090;17.038;2022-11-04T15:34:52;26.63;;;16.08;;
39404;SDS011;25121;51.090;17.038;2022-11-04T15:37:41;28.10;;;17.08;;
39404;SDS011;25121;51.090;17.038;2022-11-04T15:40:30;30.63;;;17.60;;
39404;SDS011;25121;51.090;17.038;2022-11-04T15:43:20;28.40;;;17.67;;
39404;SDS011;25121;51.090;17.038;2022-11-04T15:46:14;24.75;;;17.33;;
39404;SDS011;25121;51.090;17.038;2022-11-04T15:49:18;28.58;;;17.88;;
39404;SDS011;25121;51.090;17.038;2022-11-04T15:52:10;27.52;;;16.65;;
39404;SDS011;25121;51.090;17.038;2022-11-04T15:55:03;30.15;;;16.58;;
39404;SDS011;25121;51.090;17.038;2022-11-04T15:57:51;23.42;;;16.52;;
39404;SDS011;25121;51.090;17.038;2022-11-04T16:00:42;25.92;;;17.35;;
39404;SDS011;25121;51.090;17.038;2022-11-04T16:03:38;28.60;;;18.35;;
39404;SDS011;25121;51.090;17.038;2022-11-04T16:06:35;30.92;;;18.50;;
39404;SDS011;25121;51.090;17.038;2022-11-04T16:09:25;29.02;;;17.98;;
39404;SDS011;25121;51.090;17.038;2022-11-04T16:12:14;32.08;;;18.60;;
39404;SDS011;25121;51.090;17.038;2022-11-04T16:18:20;28.33;;;17.38;;
39404;SDS011;25121;51.090;17.038;2022-11-04T16:21:12;28.77;;;18.08;;
39404;SDS011;25121;51.090;17.038;2022-11-04T16:24:14;27.52;;;18.42;;
39404;SDS011;25121;51.090;17.038;2022-11-04T16:27:07;24.90;;;17.58;;
39404;SDS011;25121;51.090;17.038;2022-11-04T16:30:00;22.45;;;16.27;;
39404;SDS011;25121;51.090;17.038;2022-11-04T16:33:05;32.75;;;19.58;;
39404;SDS011;25121;51.090;17.038;2022-11-04T16:35:56;36.72;;;20.60;;
39404;SDS011;25121;51.090;17.038;2022-11-04T16:38:44;29.23;;;19.20;;
39404;SDS011;25121;51.090;17.038;2022-11-04T16:41:39;35.47;;;21.48;;
39404;SDS011;25121;51.090;17.038;2022-11-04T16:44:27;36.38;;;21.73;;
39404;SDS011;25121;51.090;17.038;2022-11-04T16:47:15;38.53;;;23.90;;
39404;SDS011;25121;51.090;17.038;2022-11-04T16:50:05;42.72;;;25.40;;
39404;SDS011;25121;51.090;17.038;2022-11-04T16:53:01;44.17;;;24.77;;
39404;SDS011;25121;51.090;17.038;2022-11-04T16:55:48;44.40;;;24.83;;
39404;SDS011;25121;51.090;17.038;2022-11-04T16:58:38;45.47;;;26.67;;
39404;SDS011;25121;51.090;17.038;2022-11-04T17:01:26;45.60;;;27.38;;
39404;SDS011;25121;51.090;17.038;2022-11-04T17:04:17;38.22;;;24.63;;
39404;SDS011;25121;51.090;17.038;2022-11-04T17:07:06;42.47;;;24.83;;
39404;SDS011;25121;51.090;17.038;2022-11-04T17:09:54;44.97;;;26.70;;